This demonstration page uses our WeatherBlox Daily Observations layout. Learn more.

41.55636, -103.73856

Hourly Observations for May 18, 2018

Temp ( °F °C ) Dew Point ( °F °C ) Humidity (%) Winds ( mph kmh ) Pressure ( in mb ) Visibility ( mi km ) Precip ( " mm )
12:58 am 00:58 Mostly Cloudy 51 10.7 50 9.9 95 95 NNE 21 33 29.76 1008 10 16.0934 0.02 0.508
1:58 am 01:58 Mostly Cloudy 52 10.9 50 10.2 95 95 E 16 26 29.76 1008 10 16.0934 N/A
2:58 am 02:58 Partly Cloudy 50 9.9 47 8.3 90 90 E 14 22 29.78 1008 10 16.0934 0 0
3:58 am 03:58 Partly Cloudy 49 9.2 47 8.2 94 94 ESE 10 17 29.79 1009 10 16.0934 N/A
4:58 am 04:58 Mostly Cloudy 47 8.3 46 7.6 95 95 WSW 6 9 29.83 1010 10 16.0934 N/A
5:58 am 05:58 Cloudy 48 9.1 47 8.1 94 94 Calm 29.85 1011 10 16.0934 0 0
6:58 am 06:58 Mostly Cloudy 49 9.7 47 8.4 92 92 WSW 5 7 29.87 1012 10 16.0934 N/A
7:58 am 07:58 Mostly Cloudy 51 10.8 47 8.6 86 86 Calm 29.89 1012 10 16.0934 N/A
8:58 am 08:58 Mostly Cloudy 54 12.4 49 9.7 84 84 ENE 7 11 29.9 1013 10 16.0934 N/A
9:58 am 09:58 Mostly Cloudy 56 13.4 48 9.1 75 75 Calm 29.9 1013 10 16.0934 N/A
10:58 am 10:58 Mostly Cloudy 58 14.4 50 10.1 76 76 Calm 29.9 1013 10 16.0934 N/A
11:58 am 11:58 Cloudy 60 15.6 50 9.9 69 69 ENE 6 9 29.9 1013 10 16.0934 N/A
12:58 pm 12:58 Cloudy 61 16.2 50 10 67 67 ESE 6 9 29.89 1012 10 16.0934 N/A
1:58 pm 13:58 Cloudy 61 16.3 50 10.2 67 67 E 12 19 29.88 1012 10 16.0934 N/A
2:58 pm 14:58 Mostly Cloudy 63 17.3 50 10.1 63 63 E 9 15 29.88 1012 10 16.0934 N/A
3:58 pm 15:58 Mostly Cloudy 62 16.6 52 11 70 70 E 10 17 29.89 1012 10 16.0934 N/A
4:58 pm 16:58 Mostly Cloudy 60 15.6 51 10.8 73 73 SE 14 22 29.92 1013 10 16.0934 N/A
5:58 pm 17:58 Cloudy 59 14.8 51 10.8 77 77 SE 9 15 29.92 1013 10 16.0934 N/A
6:58 pm 18:58 Mostly Cloudy 58 14.3 51 10.7 79 79 SE 7 11 29.9 1013 10 16.0934 N/A
7:58 pm 19:58 Cloudy 56 13.5 52 11 85 85 E 5 7 29.9 1013 10 16.0934 N/A
8:58 pm 20:58 Cloudy 55 13 52 11.3 90 90 NNW 5 7 29.9 1013 10 16.0934 N/A
9:58 pm 21:58 Mostly Cloudy 56 13.1 53 11.6 91 91 WSW 5 7 29.91 1013 10 16.0934 N/A
10:58 pm 22:58 Cloudy with Thunderstorms 50 10.2 49 9.4 95 95 NW 21 33 29.93 1014 10 16.0934 0.67 17.018
11:58 pm 23:58 Cloudy with Heavy Rain 50 9.8 48 9.1 95 95 NNW 26 43 29.93 1014 3 4.82802 0.65 16.51

Powered by AerisWeather